Time;durP1;ratioP1;P1;durP2;ratioP2;P2;SDS_P1;SDS_P2;PMS_P1;PMS_P2;Temp;Humidity;BMP_temperature;BMP_pressure;BME280_temperature;BME280_humidity;BME280_pressure;Samples;Min_cycle;Max_cycle;Signal;HPM_P1;HPM_P2
2022/08/23 00:00:34;;;;;;;2.50;1.40;;;17.20;99.90;;;;;;5024124;28;20035;-76
2022/08/23 00:03:00;;;;;;;3.70;1.67;;;17.30;99.90;;;;;;5024502;28;20068;-75
2022/08/23 00:05:25;;;;;;;1.52;1.38;;;17.30;99.90;;;;;;5020596;28;20061;-76
2022/08/23 00:07:51;;;;;;;1.80;1.60;;;17.30;99.90;;;;;;5023367;28;20514;-76
2022/08/23 00:10:16;;;;;;;2.67;1.67;;;17.30;99.90;;;;;;5028639;28;20030;-76
2022/08/23 00:12:44;;;;;;;3.42;1.58;;;17.40;99.90;;;;;;5026423;28;21748;-77
2022/08/23 00:15:12;;;;;;;1.70;1.60;;;17.40;99.90;;;;;;5025542;28;20025;-75
2022/08/23 00:17:38;;;;;;;4.03;1.55;;;17.30;99.90;;;;;;5026526;28;20025;-75
2022/08/23 00:20:09;;;;;;;1.70;1.60;;;17.30;99.90;;;;;;5028692;28;20466;-75
2022/08/23 00:22:37;;;;;;;1.90;1.48;;;17.30;99.90;;;;;;5027247;28;20526;-75
2022/08/23 00:25:04;;;;;;;1.48;1.38;;;17.20;99.90;;;;;;5023868;28;20036;-75
2022/08/23 00:27:30;;;;;;;1.58;1.48;;;17.20;99.90;;;;;;5026778;28;20030;-76
2022/08/23 00:29:57;;;;;;;1.45;1.30;;;17.30;99.90;;;;;;5026333;28;20038;-75
2022/08/23 00:32:34;;;;;;;1.67;1.40;;;17.20;99.90;;;;;;5028136;28;20044;-75
2022/08/23 00:35:01;;;;;;;2.50;1.80;;;17.20;99.90;;;;;;5029720;28;20045;-75
2022/08/23 00:37:30;;;;;;;3.08;1.75;;;17.20;99.90;;;;;;5026988;28;20029;-75
2022/08/23 00:39:55;;;;;;;1.70;1.60;;;17.20;99.90;;;;;;5026309;28;20778;-75
2022/08/23 00:48:12;;;;;;;1.92;1.55;;;17.20;99.90;;;;;;5027046;28;20299;-74
2022/08/23 00:50:47;;;;;;;2.38;1.55;;;17.20;99.90;;;;;;5024764;28;20091;-75
2022/08/23 00:53:22;;;;;;;2.53;2.10;;;17.30;99.90;;;;;;5028931;28;20026;-75
2022/08/23 00:55:51;;;;;;;1.55;1.40;;;17.30;99.90;;;;;;5025547;28;20545;-75
2022/08/23 00:58:18;;;;;;;1.42;1.13;;;17.40;99.90;;;;;;5027378;28;20033;-75
2022/08/23 01:00:45;;;;;;;1.75;1.50;;;17.30;99.90;;;;;;5023714;28;20122;-74
2022/08/23 01:03:12;;;;;;;1.25;1.15;;;17.30;99.90;;;;;;5027440;28;20533;-75
2022/08/23 01:05:55;;;;;;;2.15;1.67;;;17.30;99.90;;;;;;5028998;28;20068;-75
2022/08/23 01:08:24;;;;;;;1.83;1.67;;;17.30;99.90;;;;;;5019121;28;20036;-75
2022/08/23 01:10:56;;;;;;;2.10;1.70;;;17.40;99.90;;;;;;5024685;28;20484;-75
2022/08/23 01:13:34;;;;;;;2.05;1.20;;;17.40;99.90;;;;;;5023271;28;20052;-75
2022/08/23 01:16:06;;;;;;;1.75;1.63;;;17.40;99.90;;;;;;5017294;28;20082;-75
2022/08/23 01:18:32;;;;;;;1.52;1.40;;;17.40;99.90;;;;;;5018024;28;20302;-75
2022/08/23 01:21:28;;;;;;;4.35;2.15;;;17.30;99.90;;;;;;5016092;28;20376;-75
2022/08/23 01:23:59;;;;;;;5.32;1.52;;;17.30;99.90;;;;;;5019950;28;20026;-75
2022/08/23 01:26:25;;;;;;;;;;;17.30;99.90;;;;;;5018881;28;20037;-76
2022/08/23 01:28:52;;;;;;;1.45;1.23;;;17.30;99.90;;;;;;5018085;28;19913;-75
2022/08/23 01:31:21;;;;;;;1.38;1.25;;;17.40;99.90;;;;;;5017896;28;20053;-75
2022/08/23 01:33:52;;;;;;;1.75;1.40;;;17.40;99.90;;;;;;5019048;28;20029;-75
2022/08/23 01:36:18;;;;;;;1.38;1.27;;;17.40;99.90;;;;;;5017591;28;20021;-75
2022/08/23 01:38:44;;;;;;;2.47;1.42;;;17.30;99.90;;;;;;5024051;28;20022;-75
2022/08/23 01:41:09;;;;;;;1.48;1.38;;;17.30;99.90;;;;;;5017136;28;20167;-75
2022/08/23 01:43:35;;;;;;;1.80;1.55;;;17.20;99.90;;;;;;5017356;28;20101;-75
2022/08/23 01:46:13;;;;;;;1.90;1.30;;;17.30;99.90;;;;;;5021715;28;20359;-75
2022/08/23 01:48:39;;;;;;;1.30;1.20;;;17.30;99.90;;;;;;5021242;28;20030;-76
2022/08/23 01:51:06;;;;;;;1.15;1.05;;;17.30;99.90;;;;;;5023812;28;20032;-75
2022/08/23 01:53:32;;;;;;;1.50;1.40;;;17.30;99.90;;;;;;5024176;28;20116;-75
2022/08/23 01:56:00;;;;;;;2.97;1.80;;;17.40;99.90;;;;;;5025379;28;20021;-75
2022/08/23 01:58:26;;;;;;;1.60;1.20;;;17.30;99.90;;;;;;5027857;28;20034;-75
2022/08/23 02:00:52;;;;;;;1.20;1.10;;;17.20;99.90;;;;;;5025820;28;20060;-75
2022/08/23 02:03:18;;;;;;;1.27;1.10;;;17.20;99.90;;;;;;5023856;28;20056;-75
2022/08/23 02:05:44;;;;;;;1.45;1.15;;;17.30;99.90;;;;;;5021614;28;20022;-75
2022/08/23 02:10:54;;;;;;;1.60;1.20;;;17.30;99.90;;;;;;5026797;28;20040;-75
2022/08/23 02:13:19;;;;;;;2.78;1.30;;;17.30;99.90;;;;;;5022623;28;20029;-76
2022/08/23 02:15:46;;;;;;;2.55;1.40;;;17.30;99.90;;;;;;5020650;28;20025;-75
2022/08/23 02:18:12;;;;;;;2.25;1.30;;;17.30;99.90;;;;;;5027680;28;20674;-75
2022/08/23 02:20:44;;;;;;;2.90;1.05;;;17.20;99.90;;;;;;5026413;28;20079;-76
2022/08/23 02:23:09;;;;;;;;;;;17.20;99.90;;;;;;5024521;28;20021;-75
2022/08/23 02:25:35;;;;;;;5.68;1.13;;;17.20;99.90;;;;;;5025575;28;19913;-75
2022/08/23 02:28:00;;;;;;;2.17;1.23;;;17.10;99.90;;;;;;5025112;28;20380;-75
2022/08/23 02:30:26;;;;;;;1.67;1.00;;;17.20;99.90;;;;;;5026286;28;20136;-75
2022/08/23 02:32:51;;;;;;;1.48;1.38;;;17.20;99.90;;;;;;5024930;28;20029;-75
2022/08/23 02:35:17;;;;;;;2.95;1.50;;;17.10;99.90;;;;;;5024897;28;20033;-75
2022/08/23 02:37:42;;;;;;;2.22;1.05;;;17.10;99.90;;;;;;5025647;28;20109;-75
2022/08/23 02:40:08;;;;;;;1.13;1.00;;;17.00;99.90;;;;;;5025288;28;21068;-75
2022/08/23 02:42:34;;;;;;;1.77;1.33;;;17.00;99.90;;;;;;5026275;28;20026;-75
2022/08/23 02:44:59;;;;;;;1.05;0.85;;;17.00;99.90;;;;;;5025801;28;20037;-75
2022/08/23 02:47:25;;;;;;;1.77;1.30;;;17.00;99.90;;;;;;5025399;28;20114;-75
2022/08/23 02:49:52;;;;;;;1.42;1.30;;;17.10;99.90;;;;;;5025383;28;20022;-76
2022/08/23 02:52:18;;;;;;;1.65;1.42;;;17.10;99.90;;;;;;5025002;28;20033;-76
2022/08/23 02:54:43;;;;;;;2.03;1.50;;;17.10;99.90;;;;;;5022339;28;20036;-75
2022/08/23 02:57:09;;;;;;;1.42;1.17;;;17.00;99.90;;;;;;5023220;28;20655;-75
2022/08/23 02:59:34;;;;;;;1.67;1.30;;;17.00;99.90;;;;;;5024830;28;20052;-76
2022/08/23 03:02:00;;;;;;;2.42;1.23;;;16.90;99.90;;;;;;5023575;28;20030;-76
2022/08/23 03:04:26;;;;;;;1.65;1.55;;;16.90;99.90;;;;;;5027028;28;20057;-76
2022/08/23 03:06:51;;;;;;;1.60;1.40;;;16.90;99.90;;;;;;5021344;28;20037;-76
2022/08/23 03:09:17;;;;;;;3.08;1.30;;;16.80;99.90;;;;;;5026860;28;20091;-75
2022/08/23 03:11:45;;;;;;;5.20;1.30;;;16.90;99.90;;;;;;5025624;28;20029;-76
2022/08/23 03:14:11;;;;;;;1.52;1.30;;;16.90;99.90;;;;;;5025025;28;20618;-75
2022/08/23 03:16:37;;;;;;;2.92;1.40;;;16.90;99.90;;;;;;5024241;28;20025;-76
2022/08/23 03:19:03;;;;;;;10.07;1.80;;;16.80;99.90;;;;;;5023326;28;20067;-76
2022/08/23 03:21:28;;;;;;;1.42;1.33;;;16.90;99.90;;;;;;5024570;28;20079;-76
2022/08/23 03:23:54;;;;;;;2.33;1.60;;;16.90;99.90;;;;;;5026888;28;20396;-76
2022/08/23 03:26:20;;;;;;;4.45;1.70;;;16.90;99.90;;;;;;5023220;28;20028;-76
2022/08/23 03:28:46;;;;;;;1.27;1.17;;;16.90;99.90;;;;;;5020574;28;20029;-76
2022/08/23 03:31:13;;;;;;;1.83;1.30;;;16.80;99.90;;;;;;5020276;28;20041;-75
2022/08/23 03:33:39;;;;;;;1.67;1.58;;;16.80;99.90;;;;;;5025109;28;20408;-75
2022/08/23 03:36:07;;;;;;;1.95;1.30;;;16.70;99.90;;;;;;5024155;28;20491;-76
2022/08/23 03:38:33;;;;;;;2.13;1.70;;;16.80;99.90;;;;;;5023087;28;20036;-76
2022/08/23 03:41:00;;;;;;;1.70;1.38;;;16.70;99.90;;;;;;5023851;28;20105;-75
2022/08/23 03:43:25;;;;;;;1.52;1.42;;;16.70;99.90;;;;;;5020274;28;20091;-75
2022/08/23 03:45:51;;;;;;;6.22;1.50;;;16.70;99.90;;;;;;5028762;28;20032;-76
2022/08/23 03:48:16;;;;;;;2.47;1.30;;;16.70;99.90;;;;;;5028119;28;20136;-76
2022/08/23 03:50:42;;;;;;;3.40;1.27;;;16.80;99.90;;;;;;5029379;28;20484;-77
2022/08/23 03:53:08;;;;;;;1.77;1.50;;;16.80;99.90;;;;;;5027607;28;20053;-74
2022/08/23 03:55:34;;;;;;;1.42;1.25;;;16.70;99.90;;;;;;5025428;28;20029;-75
2022/08/23 03:57:59;;;;;;;1.90;1.40;;;16.60;99.90;;;;;;5028331;28;20172;-76
2022/08/23 04:00:25;;;;;;;3.45;1.25;;;16.60;99.90;;;;;;5030013;28;20484;-76
2022/08/23 04:02:50;;;;;;;1.75;1.40;;;16.70;99.90;;;;;;5025267;28;20105;-75
2022/08/23 04:05:16;;;;;;;1.83;1.40;;;16.70;99.90;;;;;;5031407;28;20211;-75
2022/08/23 04:07:42;;;;;;;1.98;1.60;;;16.70;99.90;;;;;;5026429;28;20061;-76
2022/08/23 04:10:08;;;;;;;1.58;1.48;;;16.70;99.90;;;;;;5029391;28;20025;-76
2022/08/23 04:12:34;;;;;;;3.42;2.40;;;16.70;99.90;;;;;;5026854;28;20022;-75
2022/08/23 04:15:00;;;;;;;1.65;1.50;;;16.70;99.90;;;;;;5011398;28;20026;-75
2022/08/23 04:17:27;;;;;;;1.77;1.42;;;16.70;99.90;;;;;;5027133;28;20136;-76
2022/08/23 04:19:53;;;;;;;2.15;1.45;;;16.70;99.90;;;;;;5023136;28;20392;-75
2022/08/23 04:22:19;;;;;;;1.73;1.38;;;16.70;99.90;;;;;;5025965;28;20128;-75
2022/08/23 04:24:45;;;;;;;1.75;1.30;;;16.70;99.90;;;;;;5027648;28;20086;-76
2022/08/23 04:27:11;;;;;;;3.15;1.88;;;16.70;99.90;;;;;;5027886;28;20396;-76
2022/08/23 04:29:38;;;;;;;3.00;1.88;;;16.70;99.90;;;;;;5028942;28;20038;-76
2022/08/23 04:32:06;;;;;;;3.05;1.90;;;16.70;99.90;;;;;;5027186;28;20867;-76
2022/08/23 04:34:32;;;;;;;2.92;1.95;;;16.70;99.90;;;;;;5026078;28;20227;-76
2022/08/23 04:36:58;;;;;;;2.00;1.65;;;16.80;99.90;;;;;;5026769;28;20025;-76
2022/08/23 04:39:23;;;;;;;2.75;1.65;;;16.80;99.90;;;;;;5029565;28;20388;-76
2022/08/23 04:44:33;;;;;;;1.50;1.40;;;16.90;99.90;;;;;;5025939;28;20459;-75
2022/08/23 04:47:05;;;;;;;3.53;1.88;;;16.90;99.90;;;;;;5020796;28;20033;-75
2022/08/23 04:49:32;;;;;;;2.17;1.50;;;16.90;99.90;;;;;;5026894;28;20037;-76
2022/08/23 04:51:57;;;;;;;1.95;1.77;;;17.00;99.90;;;;;;5021314;28;20083;-76
2022/08/23 04:54:23;;;;;;;3.58;1.88;;;17.00;99.90;;;;;;5027178;28;20041;-76
2022/08/23 04:56:48;;;;;;;4.18;1.58;;;17.00;99.90;;;;;;5024131;28;20025;-76
2022/08/23 04:59:14;;;;;;;2.00;1.70;;;17.00;99.90;;;;;;5028369;28;20219;-76
2022/08/23 05:01:40;;;;;;;3.25;2.00;;;16.90;99.90;;;;;;5029824;28;20025;-75
2022/08/23 05:04:06;;;;;;;3.35;1.50;;;16.90;99.90;;;;;;5028624;28;20434;-76
2022/08/23 05:06:32;;;;;;;2.05;1.55;;;17.00;99.90;;;;;;5027454;28;20151;-76
2022/08/23 05:08:58;;;;;;;2.38;1.80;;;17.00;99.90;;;;;;5025416;28;20121;-76
2022/08/23 05:11:24;;;;;;;2.47;1.73;;;16.90;99.90;;;;;;5027166;28;20017;-76
2022/08/23 05:13:49;;;;;;;2.08;1.77;;;17.00;99.90;;;;;;5028614;28;20624;-79
2022/08/23 05:16:15;;;;;;;1.75;1.50;;;17.00;99.90;;;;;;5024709;28;20139;-78
2022/08/23 05:18:41;;;;;;;2.75;2.28;;;17.00;99.90;;;;;;5025008;28;20042;-78
2022/08/23 05:21:07;;;;;;;1.33;1.23;;;17.10;99.90;;;;;;5024239;28;20040;-77
2022/08/23 05:23:33;;;;;;;1.55;1.42;;;17.10;99.90;;;;;;5028201;28;20415;-77
2022/08/23 05:25:59;;;;;;;2.78;1.80;;;17.10;99.90;;;;;;5027169;28;20033;-77
2022/08/23 05:28:28;;;;;;;2.35;1.23;;;17.00;99.90;;;;;;5027538;28;20035;-78
2022/08/23 05:31:01;;;;;;;2.45;1.75;;;17.10;99.90;;;;;;5025386;28;20049;-79
2022/08/23 05:33:28;;;;;;;2.10;1.50;;;17.10;99.90;;;;;;5033041;28;20447;-79
2022/08/23 05:35:53;;;;;;;2.70;1.77;;;17.20;99.90;;;;;;5022092;28;20675;-79
2022/08/23 05:38:20;;;;;;;1.83;1.60;;;17.30;99.90;;;;;;5020442;28;20038;-79
2022/08/23 05:40:50;;;;;;;2.38;1.92;;;17.30;99.90;;;;;;5028376;28;20030;-77
2022/08/23 05:43:16;;;;;;;2.25;1.63;;;17.40;99.90;;;;;;5017439;28;20100;-77
2022/08/23 05:45:42;;;;;;;1.90;1.70;;;17.50;99.90;;;;;;5023033;28;20025;-79
2022/08/23 05:48:07;;;;;;;1.52;1.33;;;17.70;99.90;;;;;;5025444;28;20365;-79
2022/08/23 05:50:38;;;;;;;2.75;1.60;;;17.70;99.90;;;;;;5027645;28;20029;-79
2022/08/23 05:53:20;;;;;;;2.28;1.58;;;17.90;99.90;;;;;;5023897;28;20037;-76
2022/08/23 05:55:45;;;;;;;;;;;17.90;99.90;;;;;;5007098;28;20120;-76
2022/08/23 05:58:11;;;;;;;2.13;1.70;;;18.00;99.90;;;;;;5018929;28;20619;-77
2022/08/23 06:00:36;;;;;;;3.53;2.00;;;18.30;99.90;;;;;;5028658;28;20048;-76
2022/08/23 06:03:02;;;;;;;2.28;1.67;;;18.40;99.90;;;;;;5031751;28;20484;-76
2022/08/23 06:05:28;;;;;;;1.63;1.40;;;18.50;99.90;;;;;;5031628;28;20080;-76
2022/08/23 06:07:53;;;;;;;2.92;1.48;;;18.70;99.90;;;;;;5026690;28;20079;-77
2022/08/23 06:10:20;;;;;;;2.40;1.75;;;18.80;99.90;;;;;;5029137;28;20099;-76
2022/08/23 06:12:46;;;;;;;1.90;1.55;;;18.90;99.90;;;;;;5033310;28;20499;-77
2022/08/23 06:15:12;;;;;;;3.58;1.83;;;19.00;99.90;;;;;;5027875;28;20033;-77
2022/08/23 06:17:37;;;;;;;1.98;1.40;;;19.20;99.90;;;;;;5025047;28;20104;-76
2022/08/23 06:20:05;;;;;;;4.35;1.42;;;19.40;99.90;;;;;;5025278;28;20028;-76
2022/08/23 06:22:30;;;;;;;2.55;1.77;;;19.30;99.90;;;;;;5025512;28;20110;-76
2022/08/23 06:24:56;;;;;;;2.13;1.73;;;19.40;99.90;;;;;;5025099;28;20488;-76
2022/08/23 06:27:21;;;;;;;2.92;2.03;;;19.40;99.90;;;;;;5027500;28;20140;-77
2022/08/23 06:29:48;;;;;;;2.65;1.77;;;19.40;99.90;;;;;;5026149;28;20522;-77
2022/08/23 06:32:13;;;;;;;4.47;1.98;;;19.50;99.90;;;;;;5026870;28;20029;-76
2022/08/23 06:34:39;;;;;;;2.75;1.55;;;19.50;99.90;;;;;;5024939;28;20090;-76
2022/08/23 06:37:10;;;;;;;3.38;1.83;;;19.40;99.90;;;;;;5024124;28;20171;-76
2022/08/23 06:39:36;;;;;;;2.63;1.67;;;19.50;99.90;;;;;;5026632;28;20144;-76
2022/08/23 06:42:04;;;;;;;2.30;1.77;;;19.60;99.90;;;;;;5005281;28;20061;-77
2022/08/23 06:44:30;;;;;;;1.98;1.50;;;19.70;99.90;;;;;;5024292;28;20037;-76
2022/08/23 06:46:56;;;;;;;2.28;1.35;;;19.70;99.90;;;;;;5024465;28;20087;-76
2022/08/23 06:49:22;;;;;;;3.95;1.98;;;19.80;99.90;;;;;;5026519;28;20041;-78
2022/08/23 06:51:51;;;;;;;2.15;1.60;;;19.90;99.90;;;;;;5025512;28;20033;-77
2022/08/23 06:54:19;;;;;;;3.15;2.25;;;20.00;99.90;;;;;;5024637;28;20071;-77
2022/08/23 06:56:45;;;;;;;1.42;1.33;;;20.10;99.90;;;;;;5023100;28;20049;-77
2022/08/23 06:59:11;;;;;;;1.65;1.33;;;20.10;99.90;;;;;;5026902;28;20483;-77
2022/08/23 07:01:50;;;;;;;1.52;1.20;;;20.20;99.90;;;;;;5025334;28;20112;-77
2022/08/23 07:04:21;;;;;;;3.13;1.95;;;20.20;99.90;;;;;;5026107;28;20236;-78
2022/08/23 07:06:47;;;;;;;1.65;1.42;;;20.30;99.90;;;;;;5023410;28;20526;-77
2022/08/23 07:09:13;;;;;;;3.47;1.60;;;20.50;99.90;;;;;;5024131;28;20030;-78
2022/08/23 07:11:40;;;;;;;1.60;1.50;;;20.50;99.90;;;;;;5024757;28;20029;-78
2022/08/23 07:14:09;;;;;;;1.92;1.60;;;20.80;99.90;;;;;;5025629;28;20959;-77
2022/08/23 07:16:38;;;;;;;2.38;1.42;;;21.00;99.90;;;;;;5023898;28;20651;-78
2022/08/23 07:19:03;;;;;;;2.17;1.90;;;21.20;99.90;;;;;;5019107;28;20021;-76
2022/08/23 07:21:52;;;;;;;3.63;1.42;;;21.30;99.90;;;;;;5017797;28;20483;-78
2022/08/23 07:24:19;;;;;;;2.65;1.40;;;21.30;99.90;;;;;;5013700;28;20538;-79
2022/08/23 07:26:47;;;;;;;2.67;1.40;;;21.40;99.90;;;;;;5025283;28;20075;-77
2022/08/23 07:29:14;;;;;;;2.33;1.30;;;21.40;99.90;;;;;;5021937;28;20060;-78
2022/08/23 07:31:46;;;;;;;2.00;1.55;;;21.50;99.90;;;;;;5021926;28;20083;-77
2022/08/23 07:34:12;;;;;;;1.67;1.38;;;21.70;99.90;;;;;;5022360;28;20506;-76
2022/08/23 07:36:41;;;;;;;2.60;1.30;;;21.60;99.90;;;;;;5022433;28;20071;-76
2022/08/23 07:39:08;;;;;;;1.83;1.50;;;21.60;99.90;;;;;;5024959;28;20023;-77
2022/08/23 07:41:34;;;;;;;3.17;1.42;;;21.70;99.90;;;;;;5015390;28;20014;-76
2022/08/23 07:44:02;;;;;;;2.45;1.60;;;21.90;99.90;;;;;;5021670;28;20056;-76
2022/08/23 07:46:29;;;;;;;2.45;1.70;;;22.00;99.90;;;;;;5022510;28;20102;-78
2022/08/23 07:48:57;;;;;;;2.00;1.35;;;22.10;99.90;;;;;;5026418;28;20084;-77
2022/08/23 07:51:23;;;;;;;1.40;1.30;;;22.10;99.90;;;;;;5020935;28;20042;-76
2022/08/23 07:53:49;;;;;;;4.32;1.52;;;22.10;99.90;;;;;;5023664;28;20032;-76
2022/08/23 07:56:16;;;;;;;1.83;1.38;;;22.30;99.90;;;;;;5021376;28;20021;-76
2022/08/23 07:58:42;;;;;;;1.67;1.58;;;22.40;99.90;;;;;;5022038;28;20029;-75
2022/08/23 08:01:11;;;;;;;3.55;1.48;;;22.50;99.90;;;;;;5024257;28;20028;-76
2022/08/23 08:03:37;;;;;;;1.60;1.38;;;22.30;99.90;;;;;;5022309;28;20037;-75
2022/08/23 08:06:11;;;;;;;3.00;1.55;;;22.30;99.90;;;;;;5025315;28;20033;-77
2022/08/23 08:08:39;;;;;;;2.10;1.48;;;22.50;99.90;;;;;;5021788;28;20036;-76
2022/08/23 08:11:06;;;;;;;1.92;1.60;;;22.50;99.90;;;;;;5006876;28;20109;-77
2022/08/23 08:13:32;;;;;;;1.77;1.08;;;22.40;99.90;;;;;;5022218;28;20029;-78
2022/08/23 08:15:57;;;;;;;1.48;1.38;;;22.60;99.90;;;;;;5025534;28;20095;-76
2022/08/23 08:18:22;;;;;;;1.42;1.33;;;22.60;99.90;;;;;;5023475;28;20529;-77
2022/08/23 08:20:48;;;;;;;4.43;1.63;;;22.70;99.90;;;;;;5024694;28;20029;-77
2022/08/23 08:23:14;;;;;;;1.63;1.52;;;22.50;99.90;;;;;;5023043;28;20108;-77
2022/08/23 08:25:39;;;;;;;2.13;1.63;;;22.50;99.90;;;;;;5022550;28;20033;-77
2022/08/23 08:28:04;;;;;;;2.08;1.40;;;22.60;99.90;;;;;;5023630;28;20025;-78
2022/08/23 08:30:30;;;;;;;1.67;1.30;;;22.60;99.90;;;;;;5022457;28;20403;-78
2022/08/23 08:32:55;;;;;;;2.75;1.27;;;22.80;99.90;;;;;;5023886;28;20037;-77
2022/08/23 08:35:21;;;;;;;1.13;1.00;;;22.80;99.90;;;;;;5027625;28;20383;-77
2022/08/23 08:37:46;;;;;;;1.38;1.23;;;22.70;99.90;;;;;;5028926;28;20029;-77
2022/08/23 08:40:14;;;;;;;1.20;1.10;;;22.70;99.90;;;;;;5028923;28;20021;-77
2022/08/23 08:42:53;;;;;;;1.17;1.08;;;22.80;99.90;;;;;;5026108;28;20030;-76
2022/08/23 08:45:31;;;;;;;1.05;0.98;;;22.80;99.90;;;;;;5028429;28;20032;-76
2022/08/23 08:48:05;;;;;;;1.65;1.05;;;23.00;99.90;;;;;;5028796;28;20032;-76
2022/08/23 08:50:56;;;;;;;2.03;1.08;;;22.90;99.90;;;;;;5028492;28;20040;-76
2022/08/23 08:53:34;;;;;;;6.47;1.60;;;23.20;99.90;;;;;;5024894;28;20455;-75
2022/08/23 08:56:06;;;;;;;1.70;1.10;;;23.10;99.90;;;;;;5028006;28;20025;-74
2022/08/23 08:58:49;;;;;;;1.65;1.30;;;22.80;99.90;;;;;;5036456;28;20063;-74
2022/08/23 09:01:20;;;;;;;1.63;0.95;;;20.50;99.90;;;;;;5034232;28;20025;-77
2022/08/23 09:03:47;;;;;;;2.25;1.30;;;19.70;99.90;;;;;;5011867;28;20026;-78
2022/08/23 09:06:29;;;;;;;1.00;1.00;;;19.60;99.90;;;;;;5024852;28;20032;-78
2022/08/23 09:08:58;;;;;;;1.30;1.20;;;19.60;99.90;;;;;;5021825;28;20029;-78
2022/08/23 09:11:44;;;;;;;1.58;1.27;;;19.40;99.90;;;;;;5030043;28;20027;-78
2022/08/23 09:14:45;;;;;;;2.47;1.25;;;19.40;99.90;;;;;;5028850;28;20029;-78
2022/08/23 09:17:46;;;;;;;1.23;1.00;;;19.50;99.90;;;;;;5025595;28;20385;-78
2022/08/23 09:20:14;;;;;;;7.65;1.55;;;19.60;99.90;;;;;;5011499;28;20133;-78
2022/08/23 09:22:44;;;;;;;4.80;1.67;;;19.60;99.90;;;;;;5024280;28;20041;-78
2022/08/23 09:25:11;;;;;;;1.20;1.00;;;19.60;99.90;;;;;;5029345;28;20029;-79
2022/08/23 09:27:40;;;;;;;1.50;1.40;;;19.60;99.90;;;;;;5026977;28;20037;-78
2022/08/23 09:30:06;;;;;;;1.80;1.65;;;19.70;99.90;;;;;;5027156;28;20045;-78
2022/08/23 09:32:34;;;;;;;1.45;1.33;;;19.70;99.90;;;;;;5028438;28;20034;-75
2022/08/23 09:35:13;;;;;;;1.88;1.63;;;19.90;99.90;;;;;;5024372;28;20038;-74
2022/08/23 09:38:00;;;;;;;2.03;1.25;;;20.10;99.90;;;;;;5028692;28;20033;-73
2022/08/23 09:40:35;;;;;;;2.00;1.60;;;20.40;99.90;;;;;;5028141;28;20041;-75
2022/08/23 09:43:12;;;;;;;1.50;1.40;;;20.50;99.90;;;;;;5024591;28;20068;-75
2022/08/23 09:45:59;;;;;;;3.05;2.08;;;20.60;99.90;;;;;;5022598;28;20040;-75
2022/08/23 09:48:40;;;;;;;7.55;2.42;;;20.70;99.90;;;;;;5024815;28;20034;-74
2022/08/23 09:51:16;;;;;;;1.63;1.50;;;20.70;99.90;;;;;;5025194;28;20155;-74
2022/08/23 09:53:52;;;;;;;1.45;1.35;;;20.80;99.90;;;;;;5029171;28;20018;-74
2022/08/23 09:56:26;;;;;;;4.05;1.88;;;20.90;99.90;;;;;;5028822;28;20480;-75
2022/08/23 09:58:53;;;;;;;1.77;1.67;;;20.90;99.90;;;;;;5024443;28;20080;-74
2022/08/23 10:01:27;;;;;;;4.10;1.50;;;21.00;99.90;;;;;;5025073;28;20113;-75
2022/08/23 10:04:11;;;;;;;2.35;1.88;;;21.30;99.90;;;;;;5024370;28;20125;-77
2022/08/23 10:06:39;;;;;;;1.45;1.35;;;21.50;99.90;;;;;;5027569;28;20030;-76
2022/08/23 10:09:07;;;;;;;2.25;2.00;;;21.80;99.90;;;;;;5013273;28;20037;-76
2022/08/23 10:11:43;;;;;;;1.58;1.48;;;22.00;99.90;;;;;;5017954;28;20064;-76
2022/08/23 10:14:12;;;;;;;2.28;1.77;;;22.20;99.90;;;;;;5026853;28;20048;-76
2022/08/23 10:16:53;;;;;;;2.83;2.08;;;22.30;99.90;;;;;;5019420;28;20036;-76
2022/08/23 10:19:30;;;;;;;1.70;1.60;;;22.50;99.90;;;;;;5020981;28;20137;-76
2022/08/23 10:22:02;;;;;;;2.28;2.03;;;22.80;99.90;;;;;;5019668;28;20114;-76
2022/08/23 10:24:54;;;;;;;3.15;1.75;;;23.20;99.90;;;;;;5018674;28;20033;-76
2022/08/23 10:30:16;;;;;;;2.78;2.33;;;23.80;99.90;;;;;;5023661;28;20044;-76
2022/08/23 10:33:11;;;;;;;1.90;1.40;;;24.10;99.90;;;;;;5021758;28;20422;-75
2022/08/23 10:35:41;;;;;;;2.38;1.30;;;24.00;99.90;;;;;;5025807;28;20037;-76
2022/08/23 10:38:45;;;;;;;2.35;1.60;;;24.10;97.90;;;;;;5024468;28;20089;-75
2022/08/23 10:41:28;;;;;;;1.63;1.48;;;24.40;98.20;;;;;;5017352;28;20515;-75
2022/08/23 10:44:24;;;;;;;1.45;1.35;;;24.50;95.40;;;;;;5018695;28;20160;-75
2022/08/23 10:46:56;;;;;;;1.77;1.42;;;24.30;96.10;;;;;;5024463;28;20021;-76
2022/08/23 10:49:24;;;;;;;1.52;1.42;;;24.60;95.90;;;;;;5023747;28;20041;-76
2022/08/23 10:51:51;;;;;;;1.88;1.48;;;24.70;94.90;;;;;;5026491;28;20038;-76
2022/08/23 10:54:33;;;;;;;2.63;1.33;;;24.70;94.50;;;;;;5005471;28;20530;-76
2022/08/23 10:57:01;;;;;;;1.77;1.20;;;25.00;95.70;;;;;;5021207;28;20032;-76
2022/08/23 10:59:29;;;;;;;1.30;1.20;;;25.00;95.20;;;;;;5022004;28;20565;-76
2022/08/23 11:02:27;;;;;;;1.60;1.30;;;24.90;93.80;;;;;;5018289;28;20793;-75
2022/08/23 11:05:02;;;;;;;1.67;1.10;;;25.20;92.40;;;;;;5020142;28;20040;-75
2022/08/23 11:07:37;;;;;;;2.10;1.60;;;25.20;92.70;;;;;;5016135;28;20038;-76
2022/08/23 11:10:45;;;;;;;2.72;1.77;;;25.40;90.90;;;;;;5004082;28;20033;-75
2022/08/23 11:13:14;;;;;;;1.63;1.20;;;25.40;91.00;;;;;;5008314;28;20133;-75
2022/08/23 11:16:08;;;;;;;1.50;1.38;;;25.80;88.90;;;;;;5016015;28;20506;-75
2022/08/23 11:18:47;;;;;;;1.17;1.08;;;26.30;87.40;;;;;;5024807;28;20029;-79
2022/08/23 11:21:27;;;;;;;1.77;1.40;;;26.50;88.50;;;;;;5020280;28;20033;-78
2022/08/23 11:23:59;;;;;;;2.10;1.02;;;26.40;85.90;;;;;;5019653;28;20056;-76
2022/08/23 11:26:30;;;;;;;2.53;1.15;;;26.50;83.00;;;;;;5018857;28;20032;-76
2022/08/23 11:29:21;;;;;;;1.45;1.35;;;26.40;83.70;;;;;;5018141;28;20100;-75
2022/08/23 11:32:32;;;;;;;1.38;1.27;;;26.50;81.10;;;;;;5024179;28;20029;-76
2022/08/23 11:35:09;;;;;;;2.25;1.38;;;26.50;80.00;;;;;;4944719;28;20043;-76
2022/08/23 11:37:53;;;;;;;1.85;1.40;;;26.20;81.30;;;;;;5010245;28;20590;-77
2022/08/23 11:40:54;;;;;;;2.13;1.50;;;26.90;79.80;;;;;;5020929;28;20129;-79
2022/08/23 11:43:41;;;;;;;2.72;1.45;;;29.10;73.80;;;;;;5022014;28;20026;-76
2022/08/23 11:46:22;;;;;;;1.58;1.40;;;27.10;76.60;;;;;;5022928;28;20491;-79
2022/08/23 11:49:19;;;;;;;1.63;1.30;;;26.90;78.70;;;;;;5027230;28;20391;-76
2022/08/23 11:52:28;;;;;;;1.65;1.23;;;29.40;69.70;;;;;;5026302;28;20498;-76
2022/08/23 11:55:30;;;;;;;1.20;1.10;;;29.00;67.00;;;;;;5025420;28;20391;-76
2022/08/23 11:58:25;;;;;;;1.33;1.23;;;28.70;67.80;;;;;;5022008;28;20037;-76
2022/08/23 12:01:05;;;;;;;1.65;1.23;;;27.50;72.00;;;;;;5024499;28;20030;-76
2022/08/23 12:03:43;;;;;;;1.13;1.00;;;27.30;75.60;;;;;;5025630;28;20388;-79
2022/08/23 12:06:48;;;;;;;1.40;1.30;;;26.40;75.00;;;;;;5028158;28;20384;-76
2022/08/23 12:09:35;;;;;;;1.35;1.25;;;26.90;77.10;;;;;;4998471;28;20029;-76
2022/08/23 12:12:01;;;;;;;2.05;1.40;;;29.90;65.20;;;;;;5027860;28;20545;-76
2022/08/23 12:14:29;;;;;;;1.10;1.00;;;31.70;59.50;;;;;;5029468;28;20112;-79
2022/08/23 12:16:55;;;;;;;1.05;1.00;;;33.80;55.50;;;;;;5030488;28;20028;-76
2022/08/23 12:19:45;;;;;;;1.23;1.13;;;32.90;57.00;;;;;;5027642;28;20388;-77
2022/08/23 12:22:20;;;;;;;2.13;1.20;;;35.70;49.40;;;;;;5021042;28;20131;-79
2022/08/23 12:25:03;;;;;;;1.45;1.23;;;37.30;45.80;;;;;;5026854;28;20033;-77
2022/08/23 12:27:37;;;;;;;0.90;0.90;;;36.20;46.30;;;;;;5028732;28;20025;-80
2022/08/23 12:30:29;;;;;;;2.03;1.23;;;37.40;44.30;;;;;;5026486;28;20084;-78
2022/08/23 12:33:20;;;;;;;0.90;0.90;;;36.40;45.40;;;;;;5029437;28;20064;-80
2022/08/23 12:35:55;;;;;;;1.85;1.00;;;37.40;42.90;;;;;;5028148;28;20033;-77
2022/08/23 12:38:27;;;;;;;0.80;0.80;;;37.20;42.60;;;;;;5022004;28;20033;-78
2022/08/23 12:40:53;;;;;;;1.20;1.10;;;37.90;42.50;;;;;;5029630;28;20026;-78
2022/08/23 12:43:25;;;;;;;1.80;1.25;;;38.90;41.30;;;;;;5030148;28;20057;-78
2022/08/23 12:45:57;;;;;;;3.33;0.90;;;38.10;42.30;;;;;;5028173;28;20025;-78
2022/08/23 12:48:26;;;;;;;1.40;1.00;;;37.40;42.40;;;;;;5026207;28;20037;-79
2022/08/23 12:50:57;;;;;;;1.90;1.08;;;33.50;49.60;;;;;;5028717;28;20030;-78
2022/08/23 12:53:30;;;;;;;1.48;0.95;;;36.10;45.00;;;;;;5027941;28;20040;-80
2022/08/23 12:56:03;;;;;;;0.90;0.90;;;35.90;43.90;;;;;;5028775;28;20057;-78
2022/08/23 12:58:30;;;;;;;1.10;1.00;;;32.20;51.40;;;;;;5025478;28;20025;-78
2022/08/23 13:00:59;;;;;;;1.30;1.20;;;28.40;59.70;;;;;;5031555;28;20116;-81
2022/08/23 13:03:29;;;;;;;1.65;1.15;;;33.80;51.00;;;;;;5022727;28;20037;-77
2022/08/23 13:06:14;;;;;;;1.38;1.30;;;37.30;45.00;;;;;;5025071;28;20434;-77
2022/08/23 13:08:43;;;;;;;1.70;1.20;;;36.60;44.70;;;;;;5027861;28;20053;-79
2022/08/23 13:11:10;;;;;;;2.05;1.10;;;34.40;47.90;;;;;;5029602;28;20044;-77
2022/08/23 13:13:39;;;;;;;1.30;0.85;;;36.40;44.30;;;;;;5027046;28;20108;-80
2022/08/23 13:16:40;;;;;;;0.98;0.88;;;37.00;44.20;;;;;;5026307;28;20057;-77
2022/08/23 13:19:24;;;;;;;0.80;0.80;;;36.40;43.00;;;;;;5020576;28;20166;-79
2022/08/23 13:22:18;;;;;;;0.70;0.70;;;38.10;40.50;;;;;;5027398;28;20030;-77